Time;durP1;ratioP1;P1;durP2;ratioP2;P2;SDS_P1;SDS_P2;PMS_P1;PMS_P2;Temp;Humidity;BMP_temperature;BMP_pressure;BME280_temperature;BME280_humidity;BME280_pressure;Samples;Min_cycle;Max_cycle;Signal;HPM_P1;HPM_P2
2023/11/30 00:00:19;;;;;;;30.90;22.87;;;1.10;99.90;;;;;;5083828;28;20910;-66
2023/11/30 00:02:46;;;;;;;35.60;22.40;;;1.10;99.90;;;;;;5086614;28;20538;-66
2023/11/30 00:05:15;;;;;;;29.13;22.10;;;1.10;99.90;;;;;;5097763;28;20942;-65
2023/11/30 00:07:42;;;;;;;31.80;23.67;;;1.20;99.90;;;;;;5060450;28;20485;-65
2023/11/30 00:10:10;;;;;;;32.07;23.50;;;1.10;99.90;;;;;;5089818;28;20469;-65
2023/11/30 00:12:37;;;;;;;31.33;22.67;;;1.10;99.90;;;;;;5086970;28;20539;-66
2023/11/30 00:15:05;;;;;;;29.60;22.83;;;1.10;99.90;;;;;;5089183;28;20448;-66
2023/11/30 00:17:32;;;;;;;31.27;22.40;;;1.10;99.90;;;;;;5092741;28;20428;-66
2023/11/30 00:19:59;;;;;;;33.13;24.13;;;1.10;99.90;;;;;;5080564;28;20556;-66
2023/11/30 00:22:28;;;;;;;31.00;22.47;;;1.10;99.90;;;;;;5096665;28;21023;-66
2023/11/30 00:24:55;;;;;;;31.90;22.97;;;1.10;99.90;;;;;;5085084;28;20463;-65
2023/11/30 00:27:22;;;;;;;30.70;21.90;;;1.20;99.90;;;;;;5090949;28;20449;-65
2023/11/30 00:29:49;;;;;;;34.30;23.73;;;1.20;99.90;;;;;;5098028;28;20456;-66
2023/11/30 00:32:16;;;;;;;32.07;22.87;;;1.20;99.90;;;;;;5080066;28;20453;-66
2023/11/30 00:34:44;;;;;;;30.43;22.43;;;1.20;99.90;;;;;;5096723;28;20539;-66
2023/11/30 00:37:11;;;;;;;30.70;22.20;;;1.20;99.90;;;;;;5092034;28;20453;-66
2023/11/30 00:39:39;;;;;;;30.57;21.63;;;1.20;99.90;;;;;;5081319;28;20457;-66
2023/11/30 00:42:07;;;;;;;32.60;22.67;;;1.20;99.90;;;;;;5100218;28;20456;-66
2023/11/30 00:44:34;;;;;;;30.20;22.80;;;1.20;99.90;;;;;;5096433;28;20911;-66
2023/11/30 00:47:01;;;;;;;30.43;21.60;;;1.20;99.90;;;;;;5092323;28;20453;-66
2023/11/30 00:49:28;;;;;;;34.83;22.70;;;1.20;99.90;;;;;;5079911;28;20467;-66
2023/11/30 00:51:55;;;;;;;30.93;22.50;;;1.10;99.90;;;;;;5097774;28;20843;-66
2023/11/30 00:54:22;;;;;;;34.60;21.87;;;1.20;99.90;;;;;;5091476;28;20471;-66
2023/11/30 00:56:51;;;;;;;30.80;21.73;;;1.10;99.90;;;;;;5079961;28;20439;-67
2023/11/30 00:59:18;;;;;;;35.00;23.10;;;1.10;99.90;;;;;;5093030;28;20750;-67
2023/11/30 01:01:45;;;;;;;29.40;21.23;;;1.10;99.90;;;;;;5096960;28;20466;-66
2023/11/30 01:04:12;;;;;;;33.53;21.70;;;1.10;99.90;;;;;;5079566;28;20792;-67
2023/11/30 01:06:40;;;;;;;37.00;24.43;;;1.10;99.90;;;;;;5078777;28;20453;-67
2023/11/30 01:09:07;;;;;;;30.63;20.27;;;1.10;99.90;;;;;;5085631;28;20546;-67
2023/11/30 01:11:35;;;;;;;29.40;20.77;;;1.10;99.90;;;;;;5099566;28;20456;-67
2023/11/30 01:14:03;;;;;;;29.43;19.27;;;1.00;99.90;;;;;;5085469;28;20449;-67
2023/11/30 01:16:31;;;;;;;32.60;20.40;;;1.00;99.90;;;;;;5079201;28;20748;-67
2023/11/30 01:18:58;;;;;;;30.30;21.00;;;1.00;99.90;;;;;;5090047;28;20456;-67
2023/11/30 01:21:25;;;;;;;32.07;21.70;;;1.00;99.90;;;;;;5099262;28;20460;-67
2023/11/30 01:23:52;;;;;;;32.63;21.03;;;1.00;99.90;;;;;;5091924;28;20485;-67
2023/11/30 01:26:19;;;;;;;37.83;24.53;;;1.10;99.90;;;;;;5079275;28;20457;-67
2023/11/30 01:28:46;;;;;;;29.80;21.37;;;1.10;99.90;;;;;;5093594;28;20846;-67
2023/11/30 01:31:15;;;;;;;34.63;22.97;;;1.10;99.90;;;;;;5093001;28;20549;-67
2023/11/30 01:33:42;;;;;;;35.60;22.30;;;1.10;99.90;;;;;;5099147;28;20467;-67
2023/11/30 01:36:10;;;;;;;37.17;23.60;;;1.20;99.90;;;;;;5099211;28;20460;-67
2023/11/30 01:38:37;;;;;;;32.33;21.90;;;1.10;99.90;;;;;;5086210;28;20532;-66
2023/11/30 01:41:05;;;;;;;34.03;22.30;;;1.10;99.90;;;;;;5098763;28;20460;-67
2023/11/30 01:43:32;;;;;;;37.43;22.80;;;1.10;99.90;;;;;;5099154;28;20781;-67
2023/11/30 01:46:00;;;;;;;34.87;22.43;;;1.10;99.90;;;;;;5090540;28;20459;-66
2023/11/30 01:48:28;;;;;;;37.73;22.27;;;1.10;99.90;;;;;;5085912;28;20538;-66
2023/11/30 01:50:56;;;;;;;35.43;23.73;;;1.10;99.90;;;;;;5085177;28;20484;-67
2023/11/30 01:53:23;;;;;;;32.53;24.20;;;1.10;99.90;;;;;;5086106;28;20909;-67
2023/11/30 01:55:50;;;;;;;37.43;24.10;;;1.10;99.90;;;;;;5088669;28;20457;-66
2023/11/30 01:58:17;;;;;;;33.77;21.80;;;1.10;99.90;;;;;;5086769;28;20449;-66
2023/11/30 02:00:46;;;;;;;33.63;22.60;;;1.20;99.90;;;;;;5087823;28;20448;-66
2023/11/30 02:03:14;;;;;;;36.00;23.03;;;1.10;99.90;;;;;;5085972;28;20515;-66
2023/11/30 02:05:43;;;;;;;35.53;22.40;;;1.10;99.90;;;;;;5079438;28;20489;-67
2023/11/30 02:08:11;;;;;;;36.90;24.53;;;1.20;99.90;;;;;;5097755;28;20507;-67
2023/11/30 02:10:38;;;;;;;35.17;23.27;;;1.20;99.90;;;;;;5094559;28;20454;-67
2023/11/30 02:13:05;;;;;;;42.33;25.37;;;1.20;99.90;;;;;;5077737;28;20464;-67
2023/11/30 02:16:13;;;;;;;37.20;23.40;;;1.30;99.90;;;;;;5093956;28;20456;-67
2023/11/30 02:18:40;;;;;;;37.10;24.77;;;1.20;99.90;;;;;;5093677;28;20446;-67
2023/11/30 02:21:09;;;;;;;35.73;23.67;;;1.20;99.90;;;;;;5077798;28;20540;-67
2023/11/30 02:23:37;;;;;;;36.10;24.70;;;1.20;99.90;;;;;;5078055;28;20493;-67
2023/11/30 02:26:05;;;;;;;35.63;24.50;;;1.20;99.90;;;;;;5060520;28;20454;-67
2023/11/30 02:28:32;;;;;;;34.27;24.03;;;1.20;99.90;;;;;;5066869;28;20457;-66
2023/11/30 02:30:59;;;;;;;34.17;23.40;;;1.20;99.90;;;;;;5097920;28;20546;-67
2023/11/30 02:33:26;;;;;;;32.93;22.70;;;1.20;99.90;;;;;;5087415;28;20887;-67
2023/11/30 02:35:53;;;;;;;31.17;22.40;;;1.10;99.90;;;;;;5077792;28;20464;-67
2023/11/30 02:38:21;;;;;;;33.47;21.47;;;1.10;99.90;;;;;;5081164;28;20451;-67
2023/11/30 02:40:49;;;;;;;36.00;24.50;;;1.10;99.90;;;;;;5097790;28;20757;-67
2023/11/30 02:43:17;;;;;;;37.47;24.17;;;1.10;99.90;;;;;;5085740;28;20481;-68
2023/11/30 02:45:44;;;;;;;35.53;25.50;;;1.10;99.90;;;;;;5077704;28;20830;-68
2023/11/30 02:48:11;;;;;;;33.57;23.67;;;1.10;99.90;;;;;;5086252;28;20731;-68
2023/11/30 02:50:38;;;;;;;36.73;24.77;;;1.10;99.90;;;;;;5086818;28;20460;-67
2023/11/30 02:53:06;;;;;;;34.40;23.70;;;1.10;99.90;;;;;;5080192;28;20457;-67
2023/11/30 02:55:33;;;;;;;38.03;24.80;;;1.10;99.90;;;;;;5097631;28;20460;-68
2023/11/30 02:58:02;;;;;;;38.40;25.27;;;1.10;99.90;;;;;;5083961;28;20457;-68
2023/11/30 03:00:29;;;;;;;38.93;24.60;;;1.10;99.90;;;;;;5077335;28;20461;-68
2023/11/30 03:02:56;;;;;;;35.83;23.93;;;1.00;99.90;;;;;;5076888;28;20464;-68
2023/11/30 03:05:23;;;;;;;34.90;23.53;;;1.00;99.90;;;;;;5096849;28;20470;-68
2023/11/30 03:07:51;;;;;;;41.87;24.80;;;0.90;99.90;;;;;;5086279;28;20477;-69
2023/11/30 03:10:19;;;;;;;37.27;24.03;;;0.90;99.90;;;;;;5077827;28;20489;-68
2023/11/30 03:12:46;;;;;;;32.73;24.00;;;0.90;99.90;;;;;;5056887;28;20544;-68
2023/11/30 03:15:18;;;;;;;36.07;22.90;;;0.90;99.90;;;;;;5072497;28;20452;-67
2023/11/30 03:17:45;;;;;;;35.47;23.87;;;1.00;99.90;;;;;;5097241;28;20885;-68
2023/11/30 03:20:13;;;;;;;36.70;25.23;;;1.00;99.90;;;;;;5078788;28;20873;-68
2023/11/30 03:22:40;;;;;;;32.23;22.83;;;1.00;99.90;;;;;;5088554;28;20453;-67
2023/11/30 03:25:08;;;;;;;32.97;24.47;;;1.00;99.90;;;;;;5097469;28;20492;-68
2023/11/30 03:27:35;;;;;;;32.00;23.97;;;1.00;99.90;;;;;;5078582;28;20936;-68
2023/11/30 03:30:02;;;;;;;33.03;24.00;;;1.00;99.90;;;;;;5085447;28;20551;-68
2023/11/30 03:32:31;;;;;;;28.47;22.33;;;1.00;99.90;;;;;;5096989;28;20759;-68
2023/11/30 03:34:58;;;;;;;32.03;24.00;;;1.00;99.90;;;;;;5096916;28;20490;-68
2023/11/30 03:37:25;;;;;;;32.77;24.20;;;1.10;99.90;;;;;;5087581;28;21000;-68
2023/11/30 03:39:52;;;;;;;33.30;22.87;;;1.10;99.90;;;;;;5077282;28;20598;-66
2023/11/30 03:42:20;;;;;;;34.23;24.80;;;1.10;99.90;;;;;;5097263;28;20462;-67
2023/11/30 03:44:47;;;;;;;32.80;23.00;;;1.10;99.90;;;;;;5096910;28;20492;-67
2023/11/30 03:47:14;;;;;;;36.50;26.10;;;1.10;99.90;;;;;;5095483;28;20896;-67
2023/11/30 03:49:42;;;;;;;32.03;23.97;;;1.10;99.90;;;;;;5076803;28;20432;-67
2023/11/30 03:52:10;;;;;;;34.73;24.77;;;1.00;99.90;;;;;;5076895;28;20929;-67
2023/11/30 03:54:37;;;;;;;31.83;24.53;;;1.10;99.90;;;;;;5076426;28;20453;-67
2023/11/30 03:57:04;;;;;;;37.30;24.13;;;1.10;99.90;;;;;;5077400;28;20458;-67
2023/11/30 03:59:32;;;;;;;33.03;24.17;;;1.10;99.90;;;;;;5096499;28;20431;-67
2023/11/30 04:01:59;;;;;;;38.00;25.07;;;1.20;99.90;;;;;;5095907;28;20460;-68
2023/11/30 04:04:26;;;;;;;33.43;24.30;;;1.20;99.90;;;;;;5076721;28;20493;-67
2023/11/30 04:06:54;;;;;;;32.83;24.00;;;1.20;99.90;;;;;;5087462;28;20490;-67
2023/11/30 04:09:21;;;;;;;34.97;23.13;;;1.20;99.90;;;;;;5097287;28;20460;-67
2023/11/30 04:11:49;;;;;;;32.10;22.97;;;1.10;99.90;;;;;;5080234;28;20453;-67
2023/11/30 04:14:16;;;;;;;31.83;22.33;;;1.10;99.90;;;;;;5076812;28;20453;-67
2023/11/30 04:16:43;;;;;;;32.80;23.97;;;1.10;99.90;;;;;;5076210;28;20489;-66
2023/11/30 04:19:10;;;;;;;32.50;22.47;;;1.10;99.90;;;;;;5095008;28;20873;-67
2023/11/30 04:21:37;;;;;;;37.43;24.33;;;1.10;99.90;;;;;;5088317;28;20767;-67
2023/11/30 04:24:07;;;;;;;31.87;23.10;;;1.00;99.90;;;;;;5095697;28;20993;-67
2023/11/30 04:26:34;;;;;;;30.37;21.87;;;1.00;99.90;;;;;;5096911;28;20948;-66
2023/11/30 04:29:01;;;;;;;36.00;24.17;;;1.00;99.90;;;;;;5096759;28;20879;-66
2023/11/30 04:31:28;;;;;;;34.80;22.97;;;1.10;99.90;;;;;;5099941;28;20551;-65
2023/11/30 04:33:55;;;;;;;30.03;22.70;;;1.10;99.90;;;;;;5080223;28;20453;-66
2023/11/30 04:36:22;;;;;;;33.83;23.87;;;1.10;99.90;;;;;;5080319;28;20896;-66
2023/11/30 04:38:49;;;;;;;34.33;24.10;;;1.10;99.90;;;;;;5093200;28;20453;-66
2023/11/30 04:41:18;;;;;;;32.10;22.87;;;1.10;99.90;;;;;;5100142;28;20462;-66
2023/11/30 04:43:45;;;;;;;30.50;22.70;;;1.10;99.90;;;;;;5084964;28;20467;-66
2023/11/30 04:46:12;;;;;;;33.20;22.70;;;1.10;99.90;;;;;;5079697;28;20484;-65
2023/11/30 04:48:39;;;;;;;32.63;21.77;;;1.10;99.90;;;;;;5091838;28;20459;-65
2023/11/30 04:51:07;;;;;;;37.53;23.77;;;1.10;99.90;;;;;;5086299;28;20735;-66
2023/11/30 04:53:34;;;;;;;33.27;23.40;;;1.10;99.90;;;;;;5088155;28;20449;-66
2023/11/30 04:56:01;;;;;;;33.80;22.90;;;1.10;99.90;;;;;;5100457;28;20463;-66
2023/11/30 04:58:31;;;;;;;27.60;20.97;;;1.10;99.90;;;;;;5087889;28;20540;-65
2023/11/30 05:00:58;;;;;;;34.10;23.50;;;1.10;99.90;;;;;;5079350;28;20469;-66
2023/11/30 05:03:25;;;;;;;31.37;23.67;;;1.10;99.90;;;;;;5079896;28;20457;-66
2023/11/30 05:05:52;;;;;;;31.50;22.53;;;1.10;99.90;;;;;;5098592;28;20453;-66
2023/11/30 05:08:19;;;;;;;33.57;21.80;;;1.10;99.90;;;;;;5099640;28;20588;-66
2023/11/30 05:10:46;;;;;;;32.57;21.17;;;1.10;99.90;;;;;;5090538;28;20916;-66
2023/11/30 05:13:14;;;;;;;34.50;23.47;;;1.10;99.90;;;;;;5079312;28;20853;-66
2023/11/30 05:15:42;;;;;;;35.80;24.27;;;1.20;99.90;;;;;;5086834;28;20459;-66
2023/11/30 05:18:09;;;;;;;36.47;24.20;;;1.10;99.90;;;;;;5099717;28;20543;-66
2023/11/30 05:20:37;;;;;;;39.80;24.37;;;1.20;99.90;;;;;;5084189;28;20460;-65
2023/11/30 05:23:04;;;;;;;35.90;23.37;;;1.10;99.90;;;;;;5079115;28;20455;-65
2023/11/30 05:25:31;;;;;;;33.97;23.70;;;1.10;99.90;;;;;;5078964;28;20511;-66
2023/11/30 05:27:59;;;;;;;30.67;22.37;;;1.10;99.90;;;;;;5079358;28;20754;-65
2023/11/30 05:30:27;;;;;;;32.27;23.10;;;1.00;99.90;;;;;;5090037;28;20866;-65
2023/11/30 05:32:55;;;;;;;32.57;23.60;;;1.10;99.90;;;;;;5099577;28;20441;-66
2023/11/30 05:35:23;;;;;;;28.23;21.10;;;1.00;99.90;;;;;;5099405;28;20463;-66
2023/11/30 05:37:50;;;;;;;34.00;22.03;;;1.10;99.90;;;;;;5084646;28;20453;-65
2023/11/30 05:40:19;;;;;;;37.97;22.47;;;1.10;99.90;;;;;;5085710;28;20449;-65
2023/11/30 05:42:47;;;;;;;36.60;25.23;;;1.10;99.90;;;;;;5099021;28;20436;-65
2023/11/30 05:45:14;;;;;;;32.13;22.43;;;1.10;99.90;;;;;;5078471;28;20588;-66
2023/11/30 05:47:41;;;;;;;33.40;22.73;;;1.10;99.90;;;;;;5080545;28;20434;-66
2023/11/30 05:50:10;;;;;;;33.47;24.50;;;1.10;99.90;;;;;;5099093;28;20481;-66
2023/11/30 05:52:37;;;;;;;30.17;21.67;;;1.10;99.90;;;;;;5097144;28;20465;-65
2023/11/30 05:55:07;;;;;;;33.00;21.93;;;1.00;99.90;;;;;;5093164;28;20742;-65
2023/11/30 05:57:35;;;;;;;28.33;21.30;;;1.10;99.90;;;;;;5085954;28;20480;-65
2023/11/30 06:00:03;;;;;;;28.80;21.43;;;1.00;99.90;;;;;;5099235;28;20752;-65
2023/11/30 06:02:31;;;;;;;29.23;21.73;;;1.00;99.90;;;;;;5078627;28;20486;-66
2023/11/30 06:04:59;;;;;;;27.17;20.93;;;1.00;99.90;;;;;;5092140;28;20498;-65
2023/11/30 06:07:27;;;;;;;33.70;20.50;;;0.90;99.90;;;;;;5084825;28;20873;-65
2023/11/30 06:09:54;;;;;;;27.70;20.30;;;0.90;99.90;;;;;;5086375;28;20424;-65
2023/11/30 06:12:22;;;;;;;29.63;20.53;;;0.90;99.90;;;;;;5088057;28;20420;-66
2023/11/30 06:14:49;;;;;;;34.93;25.43;;;0.90;99.90;;;;;;5087396;28;20444;-65
2023/11/30 06:17:17;;;;;;;28.00;21.47;;;0.90;99.90;;;;;;5086340;28;20457;-66
2023/11/30 06:19:45;;;;;;;27.50;20.77;;;0.90;99.90;;;;;;5088198;28;20446;-66
2023/11/30 06:22:12;;;;;;;29.20;22.00;;;1.00;99.90;;;;;;5082146;28;20511;-65
2023/11/30 06:24:43;;;;;;;32.23;24.57;;;1.10;99.90;;;;;;5068313;28;20500;-65
2023/11/30 06:27:10;;;;;;;30.90;21.37;;;1.10;99.90;;;;;;5059184;28;20937;-66
2023/11/30 06:29:37;;;;;;;31.70;23.93;;;1.10;99.90;;;;;;5078809;28;20454;-65
2023/11/30 06:32:05;;;;;;;35.37;22.77;;;1.10;99.90;;;;;;5088925;28;20991;-65
2023/11/30 06:34:33;;;;;;;30.27;21.57;;;1.20;99.90;;;;;;5095858;28;20542;-65
2023/11/30 06:37:00;;;;;;;30.40;21.70;;;1.30;99.90;;;;;;5098905;28;20460;-64
2023/11/30 06:39:28;;;;;;;27.80;20.20;;;1.40;99.90;;;;;;5078871;28;20883;-63
2023/11/30 06:41:57;;;;;;;29.07;20.33;;;1.30;99.90;;;;;;5091429;28;20457;-63
2023/11/30 06:44:25;;;;;;;28.07;20.43;;;1.30;99.90;;;;;;5097677;28;20484;-63
2023/11/30 06:46:52;;;;;;;27.07;18.80;;;1.20;99.90;;;;;;5077766;28;20514;-63
2023/11/30 06:49:20;;;;;;;29.30;20.27;;;1.20;99.90;;;;;;5085040;28;20940;-63
2023/11/30 06:51:47;;;;;;;26.10;19.10;;;1.30;99.90;;;;;;5096841;28;20889;-63
2023/11/30 06:54:14;;;;;;;27.00;19.60;;;1.20;99.90;;;;;;5076921;28;20449;-63
2023/11/30 06:56:41;;;;;;;24.43;17.87;;;1.20;99.90;;;;;;5077214;28;20467;-63
2023/11/30 06:59:10;;;;;;;25.90;17.93;;;1.20;99.90;;;;;;5077239;28;20536;-64
2023/11/30 07:01:37;;;;;;;25.87;18.37;;;1.20;99.90;;;;;;5087040;28;20506;-63
2023/11/30 07:04:05;;;;;;;24.37;18.73;;;1.20;99.90;;;;;;5096165;28;20457;-63
2023/11/30 07:06:32;;;;;;;26.00;18.03;;;1.10;99.90;;;;;;5077362;28;20784;-63
2023/11/30 07:08:59;;;;;;;26.70;18.80;;;1.20;99.90;;;;;;5077556;28;20431;-63
2023/11/30 07:11:26;;;;;;;27.13;17.63;;;1.20;99.90;;;;;;5081100;28;20535;-63
2023/11/30 07:13:53;;;;;;;24.77;17.13;;;1.20;99.90;;;;;;5097185;28;20467;-63
2023/11/30 07:16:22;;;;;;;24.97;18.97;;;1.10;99.90;;;;;;5083140;28;20532;-63
2023/11/30 07:18:51;;;;;;;27.93;18.80;;;1.20;99.90;;;;;;5079709;28;20460;-63
2023/11/30 07:21:19;;;;;;;24.80;16.70;;;1.20;99.90;;;;;;5097619;28;20733;-63
2023/11/30 07:23:46;;;;;;;23.33;16.20;;;1.20;99.90;;;;;;5080801;28;20453;-63
2023/11/30 07:26:13;;;;;;;23.50;17.00;;;1.30;99.90;;;;;;5077352;28;20495;-63
2023/11/30 07:28:40;;;;;;;24.37;18.17;;;1.30;99.90;;;;;;5077103;28;20461;-63
2023/11/30 07:31:08;;;;;;;21.60;16.60;;;1.30;99.90;;;;;;5093870;28;20922;-63
2023/11/30 07:33:38;;;;;;;22.60;16.47;;;1.30;99.90;;;;;;5091950;28;20881;-63
2023/11/30 07:36:07;;;;;;;20.07;15.43;;;1.20;99.90;;;;;;5077184;28;20436;-63
2023/11/30 07:38:34;;;;;;;21.60;15.53;;;1.10;99.90;;;;;;5092532;28;20749;-63
2023/11/30 07:41:01;;;;;;;20.30;14.57;;;1.10;99.90;;;;;;5097205;28;20474;-63
2023/11/30 07:43:31;;;;;;;28.83;17.17;;;1.10;99.90;;;;;;5095972;28;20464;-63
2023/11/30 07:45:58;;;;;;;22.70;16.60;;;1.20;99.90;;;;;;5081580;28;20515;-63
2023/11/30 07:48:25;;;;;;;25.20;16.20;;;1.20;99.90;;;;;;5084246;28;20449;-63
2023/11/30 07:50:54;;;;;;;21.07;15.70;;;1.20;99.90;;;;;;5096962;28;20461;-63
2023/11/30 07:53:23;;;;;;;25.07;17.93;;;1.20;99.90;;;;;;5056763;28;20742;-63
2023/11/30 07:55:54;;;;;;;24.50;17.30;;;1.20;99.90;;;;;;5077338;28;20889;-62
2023/11/30 07:58:22;;;;;;;23.63;15.80;;;1.20;99.90;;;;;;5097310;28;20551;-63
2023/11/30 08:00:50;;;;;;;22.27;15.37;;;1.20;99.90;;;;;;5075158;28;20504;-63
2023/11/30 08:03:17;;;;;;;22.10;14.93;;;1.30;99.90;;;;;;5071686;28;20497;-62
2023/11/30 08:05:44;;;;;;;26.10;15.93;;;1.30;99.90;;;;;;5074757;28;20523;-62
2023/11/30 08:08:13;;;;;;;23.77;17.33;;;1.30;99.90;;;;;;5078103;28;20587;-63
2023/11/30 08:10:41;;;;;;;26.03;17.40;;;1.30;99.90;;;;;;5089549;28;20472;-63
2023/11/30 08:13:10;;;;;;;26.57;17.57;;;1.40;99.90;;;;;;5100988;28;20489;-63
2023/11/30 08:15:37;;;;;;;24.60;17.67;;;1.40;99.90;;;;;;5081601;28;20455;-62
2023/11/30 08:18:07;;;;;;;22.00;15.80;;;1.40;99.90;;;;;;5092528;28;20495;-62
2023/11/30 08:20:35;;;;;;;23.20;16.37;;;1.40;99.90;;;;;;5097931;28;20869;-62
2023/11/30 08:23:02;;;;;;;22.13;15.57;;;1.40;99.90;;;;;;5080019;28;20440;-63
2023/11/30 08:25:31;;;;;;;24.67;17.20;;;1.40;99.90;;;;;;5080325;28;20493;-63
2023/11/30 08:27:58;;;;;;;27.23;18.30;;;1.40;99.90;;;;;;5082075;28;20450;-63
2023/11/30 08:30:26;;;;;;;27.17;18.27;;;1.50;99.90;;;;;;5100672;28;20555;-63
2023/11/30 08:32:53;;;;;;;27.40;19.47;;;1.50;99.90;;;;;;5092476;28;20453;-64
2023/11/30 08:35:21;;;;;;;38.17;23.33;;;1.50;99.90;;;;;;5081622;28;20449;-64
2023/11/30 08:37:48;;;;;;;27.00;19.63;;;1.60;99.90;;;;;;5096885;28;20794;-64
2023/11/30 08:40:16;;;;;;;24.50;16.80;;;1.50;99.90;;;;;;5093986;28;20449;-64
2023/11/30 08:42:44;;;;;;;23.70;17.40;;;1.60;99.90;;;;;;5084541;28;20458;-65
2023/11/30 08:45:11;;;;;;;22.17;17.50;;;1.60;99.90;;;;;;5084913;28;20482;-65
2023/11/30 08:47:39;;;;;;;24.90;17.60;;;1.50;99.90;;;;;;5079132;28;20467;-65
2023/11/30 08:50:07;;;;;;;22.70;16.20;;;1.40;99.90;;;;;;5079850;28;20535;-65
2023/11/30 08:52:34;;;;;;;23.27;17.00;;;1.40;99.90;;;;;;5079896;28;20496;-65
2023/11/30 08:55:01;;;;;;;23.40;17.03;;;1.40;99.90;;;;;;5078328;28;20458;-65
2023/11/30 08:57:29;;;;;;;22.20;16.23;;;1.50;99.90;;;;;;5078198;28;20461;-65
2023/11/30 08:59:57;;;;;;;23.43;16.83;;;1.50;99.90;;;;;;5076412;28;20958;-65
2023/11/30 09:02:25;;;;;;;23.70;16.53;;;1.50;99.90;;;;;;5077753;28;20548;-65
2023/11/30 09:04:52;;;;;;;23.77;17.30;;;1.50;99.90;;;;;;5076763;28;20450;-65
2023/11/30 09:07:20;;;;;;;20.50;15.70;;;1.50;99.90;;;;;;5077765;28;20491;-65
2023/11/30 09:09:47;;;;;;;23.97;18.70;;;1.50;99.90;;;;;;5078499;28;20462;-66
2023/11/30 09:12:15;;;;;;;24.40;18.00;;;1.50;99.90;;;;;;5079570;28;20819;-65
2023/11/30 09:14:42;;;;;;;26.10;17.83;;;1.40;99.90;;;;;;5079120;28;20463;-65
2023/11/30 09:17:10;;;;;;;21.60;16.60;;;1.50;99.90;;;;;;5077936;28;20469;-65
2023/11/30 09:19:38;;;;;;;22.50;17.63;;;1.50;99.90;;;;;;5077910;28;20464;-65
2023/11/30 09:22:07;;;;;;;22.67;17.33;;;1.40;99.90;;;;;;5077957;28;20457;-64
2023/11/30 09:24:34;;;;;;;24.60;18.50;;;1.50;99.90;;;;;;5077614;28;20458;-65
2023/11/30 09:27:02;;;;;;;24.63;19.07;;;1.60;99.90;;;;;;5077171;28;20877;-65
2023/11/30 09:29:30;;;;;;;22.93;17.23;;;1.70;99.90;;;;;;5077587;28;20548;-65
2023/11/30 09:31:57;;;;;;;24.43;19.10;;;1.70;99.90;;;;;;5077841;28;20457;-65
2023/11/30 09:34:27;;;;;;;24.37;18.50;;;1.80;99.90;;;;;;5078939;28;20901;-66
2023/11/30 09:36:54;;;;;;;24.03;18.50;;;1.80;99.90;;;;;;5077751;28;20453;-64
2023/11/30 09:39:22;;;;;;;22.57;17.10;;;1.80;99.90;;;;;;5076311;28;20568;-65
2023/11/30 09:41:51;;;;;;;23.63;18.03;;;1.80;99.90;;;;;;5075533;28;20784;-64
2023/11/30 09:44:18;;;;;;;23.00;18.47;;;1.80;99.90;;;;;;5075908;28;20821;-62
2023/11/30 09:46:45;;;;;;;23.60;17.80;;;1.80;99.90;;;;;;5075629;28;20772;-62
2023/11/30 09:49:13;;;;;;;23.97;17.97;;;1.70;99.90;;;;;;5075736;28;20798;-62
2023/11/30 09:51:46;;;;;;;23.70;17.87;;;1.70;99.90;;;;;;5076121;28;20552;-62
2023/11/30 09:54:13;;;;;;;26.67;18.03;;;1.80;99.90;;;;;;5077509;28;20458;-62
2023/11/30 09:56:40;;;;;;;21.87;16.40;;;1.80;99.90;;;;;;5076788;28;20458;-61
2023/11/30 09:59:07;;;;;;;23.40;17.83;;;1.90;99.90;;;;;;5076615;28;20460;-61
2023/11/30 10:01:35;;;;;;;22.67;16.37;;;2.10;99.90;;;;;;5076401;28;20461;-61
2023/11/30 10:04:13;;;;;;;22.20;18.30;;;2.30;99.90;;;;;;5076677;28;20514;-60
2023/11/30 10:06:42;;;;;;;23.53;17.00;;;2.40;99.90;;;;;;5075974;28;20794;-60
2023/11/30 10:09:12;;;;;;;28.17;17.53;;;2.50;99.90;;;;;;5077088;28;20484;-60
2023/11/30 10:11:40;;;;;;;21.47;17.20;;;2.50;99.90;;;;;;5077790;28;20572;-60
2023/11/30 10:14:08;;;;;;;20.90;16.10;;;2.50;99.90;;;;;;5078168;28;20468;-60
2023/11/30 10:16:35;;;;;;;23.47;16.50;;;2.50;99.90;;;;;;5078095;28;20454;-60
2023/11/30 10:19:03;;;;;;;22.20;16.40;;;2.50;99.90;;;;;;5077781;28;20559;-60
2023/11/30 10:21:31;;;;;;;24.43;18.10;;;2.50;99.90;;;;;;5077765;28;20461;-60
2023/11/30 10:24:00;;;;;;;27.90;19.63;;;2.40;99.90;;;;;;5077992;28;20457;-60
2023/11/30 10:26:30;;;;;;;23.17;17.80;;;2.30;99.90;;;;;;5077065;28;20552;-62
2023/11/30 10:29:00;;;;;;;25.13;17.93;;;2.30;99.90;;;;;;5077219;28;20457;-62
2023/11/30 10:31:29;;;;;;;23.50;19.17;;;2.20;99.90;;;;;;5077773;28;20559;-62
2023/11/30 10:34:04;;;;;;;25.93;20.30;;;2.20;99.90;;;;;;5078174;28;20461;-62
2023/11/30 10:36:34;;;;;;;25.20;18.53;;;2.20;99.90;;;;;;5077524;28;20881;-62
2023/11/30 10:39:11;;;;;;;26.70;19.23;;;2.10;99.90;;;;;;5076883;28;20461;-63
2023/11/30 10:41:50;;;;;;;25.23;20.43;;;2.00;99.90;;;;;;5078045;28;20461;-62
2023/11/30 10:44:25;;;;;;;28.37;22.17;;;2.00;99.90;;;;;;5078011;28;20461;-62
2023/11/30 10:46:54;;;;;;;29.30;23.30;;;2.00;99.90;;;;;;5077252;28;20489;-62
2023/11/30 10:49:23;;;;;;;30.33;22.10;;;2.10;99.90;;;;;;5077454;28;20469;-62
2023/11/30 10:51:52;;;;;;;25.83;19.77;;;2.30;99.90;;;;;;5077852;28;20457;-62
2023/11/30 10:54:31;;;;;;;28.07;20.80;;;2.30;99.90;;;;;;5077831;28;20731;-62
2023/11/30 10:57:00;;;;;;;26.93;20.90;;;2.50;99.90;;;;;;5077241;28;20544;-62
2023/11/30 10:59:29;;;;;;;28.10;20.47;;;2.70;99.90;;;;;;5077153;28;20497;-61
2023/11/30 11:01:57;;;;;;;28.70;22.30;;;2.90;99.90;;;;;;5077513;28;20556;-61
2023/11/30 11:04:25;;;;;;;27.00;19.87;;;2.90;99.90;;;;;;5077482;28;20462;-61
2023/11/30 11:07:01;;;;;;;29.90;20.40;;;2.90;99.90;;;;;;5076809;28;20502;-61
2023/11/30 11:09:40;;;;;;;26.53;20.60;;;3.10;99.90;;;;;;5076109;28;20457;-61
2023/11/30 11:12:17;;;;;;;23.97;19.03;;;3.30;99.90;;;;;;5077411;28;20765;-61
2023/11/30 11:14:45;;;;;;;26.40;19.50;;;3.60;99.90;;;;;;5076805;28;20457;-61
2023/11/30 11:17:12;;;;;;;24.67;19.67;;;3.40;99.90;;;;;;5077341;28;20457;-60
2023/11/30 11:19:40;;;;;;;25.47;19.30;;;3.60;99.90;;;;;;5077109;28;20463;-61
2023/11/30 11:22:18;;;;;;;29.83;20.60;;;3.80;99.90;;;;;;5077173;28;20462;-61
2023/11/30 11:24:49;;;;;;;28.37;19.63;;;3.90;99.90;;;;;;5076839;28;20528;-61
2023/11/30 11:27:28;;;;;;;23.27;17.00;;;4.10;99.90;;;;;;5077263;28;20587;-61
2023/11/30 11:29:58;;;;;;;22.80;15.40;;;4.20;99.90;;;;;;5077137;28;20458;-61
2023/11/30 11:32:26;;;;;;;69.70;40.57;;;4.20;99.90;;;;;;5077127;28;20457;-60
2023/11/30 11:34:54;;;;;;;24.33;18.30;;;4.30;99.90;;;;;;5077301;28;20467;-60
2023/11/30 11:37:21;;;;;;;25.13;20.00;;;4.40;99.90;;;;;;5076988;28;20464;-60
2023/11/30 11:39:51;;;;;;;20.40;15.47;;;4.50;99.90;;;;;;5080201;28;20954;-60
2023/11/30 11:42:18;;;;;;;20.93;17.20;;;4.40;99.90;;;;;;5081331;28;20886;-60
2023/11/30 11:44:46;;;;;;;20.80;15.67;;;4.30;99.90;;;;;;5080708;28;20504;-60
2023/11/30 11:47:13;;;;;;;20.17;15.83;;;4.10;99.90;;;;;;5081181;28;20934;-60
2023/11/30 11:49:41;;;;;;;17.37;13.80;;;4.10;99.90;;;;;;5080984;28;20457;-60
2023/11/30 11:52:08;;;;;;;19.43;16.43;;;4.10;99.90;;;;;;5081171;28;20464;-61
2023/11/30 11:54:35;;;;;;;20.17;14.70;;;4.00;1.00;;;;;;5080283;28;20915;-60
2023/11/30 11:57:04;;;;;;;21.47;17.83;;;4.00;10.10;;;;;;5080803;28;20531;-60
2023/11/30 11:59:32;;;;;;;19.57;14.90;;;4.10;99.90;;;;;;5080834;28;20463;-59
2023/11/30 12:02:00;;;;;;;18.57;15.37;;;4.20;59.10;;;;;;5080872;28;20461;-59
2023/11/30 12:04:29;;;;;;;18.10;14.90;;;4.30;99.90;;;;;;5080502;28;20460;-59
2023/11/30 12:06:56;;;;;;;16.70;13.00;;;4.30;99.90;;;;;;5080151;28;20475;-60
2023/11/30 12:09:23;;;;;;;14.80;12.70;;;4.30;53.40;;;;;;5080627;28;20461;-60
2023/11/30 12:11:51;;;;;;;23.87;20.17;;;4.40;26.20;;;;;;5080647;28;20457;-60
2023/11/30 12:14:22;;;;;;;17.70;14.90;;;4.40;14.70;;;;;;5080833;28;20823;-60
2023/11/30 12:16:49;;;;;;;20.93;16.17;;;4.50;23.60;;;;;;5080205;28;20556;-60
2023/11/30 12:19:19;;;;;;;17.70;13.57;;;4.50;7.00;;;;;;5080454;28;20521;-60
2023/11/30 12:21:46;;;;;;;15.10;13.50;;;4.40;1.00;;;;;;5079972;28;20471;-54
2023/11/30 12:24:14;;;;;;;15.07;12.90;;;4.30;1.00;;;;;;5080756;28;20432;-55
2023/11/30 12:26:42;;;;;;;16.73;14.03;;;4.40;1.00;;;;;;5079923;28;20467;-51
2023/11/30 12:29:10;;;;;;;13.97;11.30;;;4.30;1.00;;;;;;5080178;28;20489;-55
2023/11/30 12:31:38;;;;;;;15.57;12.30;;;4.40;1.00;;;;;;5080391;28;20504;-53
2023/11/30 12:34:06;;;;;;;13.80;11.50;;;4.40;1.00;;;;;;5080091;28;20539;-55
2023/11/30 12:36:33;;;;;;;13.50;11.00;;;4.60;1.00;;;;;;5079751;28;20507;-54
2023/11/30 12:39:00;;;;;;;16.07;11.87;;;4.70;1.00;;;;;;5079953;28;20912;-55
2023/11/30 12:41:28;;;;;;;16.47;11.73;;;4.80;1.00;;;;;;5080101;28;20547;-55